sensor_id;sensor_type;location;lat;lon;timestamp;pressure;altitude;pressure_sealevel;temperature;humidity
46942;BME280;32676;52.630;4.896;2023-02-13T00:00:59;103818.19;;;7.90;75.94
46942;BME280;32676;52.630;4.896;2023-02-13T00:03:25;103820.00;;;7.93;75.98
46942;BME280;32676;52.630;4.896;2023-02-13T00:05:52;103812.09;;;7.91;75.81
46942;BME280;32676;52.630;4.896;2023-02-13T00:08:19;103819.09;;;7.92;75.84
46942;BME280;32676;52.630;4.896;2023-02-13T00:10:46;103817.25;;;7.88;75.75
46942;BME280;32676;52.630;4.896;2023-02-13T00:13:12;103810.25;;;7.87;75.51
46942;BME280;32676;52.630;4.896;2023-02-13T00:15:40;103834.91;;;7.95;75.22
46942;BME280;32676;52.630;4.896;2023-02-13T00:18:07;103836.66;;;7.96;75.38
46942;BME280;32676;52.630;4.896;2023-02-13T00:20:33;103837.38;;;7.91;75.33
46942;BME280;32676;52.630;4.896;2023-02-13T00:23:00;103862.13;;;8.02;75.28
46942;BME280;32676;52.630;4.896;2023-02-13T00:25:27;103854.22;;;8.00;75.10
46942;BME280;32676;52.630;4.896;2023-02-13T00:27:54;103853.41;;;8.01;75.14
46942;BME280;32676;52.630;4.896;2023-02-13T00:30:21;103862.19;;;8.03;74.89
46942;BME280;32676;52.630;4.896;2023-02-13T00:32:49;103863.97;;;8.04;74.78
46942;BME280;32676;52.630;4.896;2023-02-13T00:35:17;103860.28;;;7.98;74.71
46942;BME280;32676;52.630;4.896;2023-02-13T00:37:44;103870.91;;;8.04;74.69
46942;BME280;32676;52.630;4.896;2023-02-13T00:40:11;103857.81;;;8.02;74.73
46942;BME280;32676;52.630;4.896;2023-02-13T00:42:38;103834.66;;;7.86;74.94
46942;BME280;32676;52.630;4.896;2023-02-13T00:45:05;103856.00;;;8.01;74.91
46942;BME280;32676;52.630;4.896;2023-02-13T00:47:31;103843.75;;;8.00;75.20
46942;BME280;32676;52.630;4.896;2023-02-13T00:49:59;103834.06;;;7.96;75.20
46942;BME280;32676;52.630;4.896;2023-02-13T00:52:26;103836.59;;;7.93;75.33
46942;BME280;32676;52.630;4.896;2023-02-13T00:54:53;103853.34;;;8.00;75.23
46942;BME280;32676;52.630;4.896;2023-02-13T00:57:19;103843.69;;;7.97;75.50
46942;BME280;32676;52.630;4.896;2023-02-13T00:59:46;103834.06;;;7.96;75.69
46942;BME280;32676;52.630;4.896;2023-02-13T01:02:13;103838.47;;;7.97;75.79
46942;BME280;32676;52.630;4.896;2023-02-13T01:04:40;103827.06;;;7.95;75.68
46942;BME280;32676;52.630;4.896;2023-02-13T01:07:08;103838.47;;;7.97;75.50
46942;BME280;32676;52.630;4.896;2023-02-13T01:09:34;103835.66;;;7.91;75.57
46942;BME280;32676;52.630;4.896;2023-02-13T01:12:01;103854.22;;;8.00;75.43
46942;BME280;32676;52.630;4.896;2023-02-13T01:14:29;103849.84;;;7.99;75.36
46942;BME280;32676;52.630;4.896;2023-02-13T01:16:55;103840.16;;;7.95;75.37
46942;BME280;32676;52.630;4.896;2023-02-13T01:19:22;103824.19;;;7.86;75.16
46942;BME280;32676;52.630;4.896;2023-02-13T01:21:48;103835.78;;;7.96;75.42
46942;BME280;32676;52.630;4.896;2023-02-13T01:24:16;103819.94;;;7.90;75.47
46942;BME280;32676;52.630;4.896;2023-02-13T01:26:43;103815.56;;;7.90;75.53
46942;BME280;32676;52.630;4.896;2023-02-13T01:29:11;103815.56;;;7.90;75.53
46942;BME280;32676;52.630;4.896;2023-02-13T01:31:38;103791.66;;;7.78;75.54
46942;BME280;32676;52.630;4.896;2023-02-13T01:34:05;103808.47;;;7.86;75.70
46942;BME280;32676;52.630;4.896;2023-02-13T01:36:31;103826.13;;;7.93;75.60
46942;BME280;32676;52.630;4.896;2023-02-13T01:38:58;103827.88;;;7.94;75.62
46942;BME280;32676;52.630;4.896;2023-02-13T01:41:27;103828.75;;;7.93;75.59
46942;BME280;32676;52.630;4.896;2023-02-13T01:43:57;103827.00;;;7.94;75.53
46942;BME280;32676;52.630;4.896;2023-02-13T01:46:27;103820.91;;;7.93;75.53
46942;BME280;32676;52.630;4.896;2023-02-13T01:48:57;103809.44;;;7.90;75.63
46942;BME280;32676;52.630;4.896;2023-02-13T01:51:28;103806.78;;;7.88;75.68
46942;BME280;32676;52.630;4.896;2023-02-13T01:53:59;103801.56;;;7.88;75.63
46942;BME280;32676;52.630;4.896;2023-02-13T01:56:32;103792.78;;;7.86;75.65
46942;BME280;32676;52.630;4.896;2023-02-13T01:59:02;103783.91;;;7.81;75.76
46942;BME280;32676;52.630;4.896;2023-02-13T02:01:30;103768.00;;;7.73;75.96
46942;BME280;32676;52.630;4.896;2023-02-13T02:04:05;103776.97;;;7.83;76.07
46942;BME280;32676;52.630;4.896;2023-02-13T02:06:35;103787.44;;;7.83;76.08
46942;BME280;32676;52.630;4.896;2023-02-13T02:09:06;103782.22;;;7.83;76.20
46942;BME280;32676;52.630;4.896;2023-02-13T02:11:38;103773.44;;;7.81;76.24
46942;BME280;32676;52.630;4.896;2023-02-13T02:14:07;103755.78;;;7.74;76.37
46942;BME280;32676;52.630;4.896;2023-02-13T02:16:34;103748.78;;;7.73;76.23
46942;BME280;32676;52.630;4.896;2023-02-13T02:19:03;103756.63;;;7.73;76.32
46942;BME280;32676;52.630;4.896;2023-02-13T02:22:00;103755.69;;;7.71;76.27
46942;BME280;32676;52.630;4.896;2023-02-13T02:27:54;103746.94;;;7.68;75.82
46942;BME280;32676;52.630;4.896;2023-02-13T02:30:40;103762.88;;;7.78;75.81
46942;BME280;32676;52.630;4.896;2023-02-13T02:33:20;103750.59;;;7.75;75.85
46942;BME280;32676;52.630;4.896;2023-02-13T02:35:55;103741.84;;;7.75;75.81
46942;BME280;32676;52.630;4.896;2023-02-13T02:38:33;103722.34;;;7.63;75.98
46942;BME280;32676;52.630;4.896;2023-02-13T02:41:08;103745.31;;;7.74;76.05
46942;BME280;32676;52.630;4.896;2023-02-13T02:44:06;103741.78;;;7.72;76.20
46942;BME280;32676;52.630;4.896;2023-02-13T02:46:36;103731.22;;;7.68;76.42
46942;BME280;32676;52.630;4.896;2023-02-13T02:49:31;103734.75;;;7.71;76.46
46942;BME280;32676;52.630;4.896;2023-02-13T02:52:26;103718.97;;;7.67;76.75
46942;BME280;32676;52.630;4.896;2023-02-13T02:55:01;103726.00;;;7.68;76.69
46942;BME280;32676;52.630;4.896;2023-02-13T02:57:48;103711.78;;;7.60;76.63
46942;BME280;32676;52.630;4.896;2023-02-13T03:00:37;103729.53;;;7.71;76.77
46942;BME280;32676;52.630;4.896;2023-02-13T03:03:24;103727.78;;;7.69;76.77
46942;BME280;32676;52.630;4.896;2023-02-13T03:06:16;103732.13;;;7.71;76.67
46942;BME280;32676;52.630;4.896;2023-02-13T03:08:46;103723.31;;;7.67;76.63
46942;BME280;32676;52.630;4.896;2023-02-13T03:11:36;103738.25;;;7.69;76.71
46942;BME280;32676;52.630;4.896;2023-02-13T03:14:21;103730.38;;;7.69;76.68
46942;BME280;32676;52.630;4.896;2023-02-13T03:16:49;103734.75;;;7.71;76.79
46942;BME280;32676;52.630;4.896;2023-02-13T03:19:43;103711.97;;;7.66;76.95
46942;BME280;32676;52.630;4.896;2023-02-13T03:22:36;103710.19;;;7.65;77.07
46942;BME280;32676;52.630;4.896;2023-02-13T03:25:13;103699.66;;;7.62;77.13
46942;BME280;32676;52.630;4.896;2023-02-13T03:27:49;103697.88;;;7.61;77.15
46942;BME280;32676;52.630;4.896;2023-02-13T03:30:45;103692.50;;;7.55;77.13
46942;BME280;32676;52.630;4.896;2023-02-13T03:33:26;103693.47;;;7.59;77.21
46942;BME280;32676;52.630;4.896;2023-02-13T03:36:02;103692.66;;;7.61;77.24
46942;BME280;32676;52.630;4.896;2023-02-13T03:38:55;103705.78;;;7.63;77.23
46942;BME280;32676;52.630;4.896;2023-02-13T03:41:26;103715.44;;;7.65;77.43
46942;BME280;32676;52.630;4.896;2023-02-13T03:44:03;103711.84;;;7.62;77.26
46942;BME280;32676;52.630;4.896;2023-02-13T03:46:36;103694.38;;;7.61;77.26
46942;BME280;32676;52.630;4.896;2023-02-13T03:49:10;103681.25;;;7.59;77.38
46942;BME280;32676;52.630;4.896;2023-02-13T03:52:00;103673.31;;;7.56;77.57
46942;BME280;32676;52.630;4.896;2023-02-13T03:54:37;103645.16;;;7.46;77.70
46942;BME280;32676;52.630;4.896;2023-02-13T03:57:25;103646.13;;;7.49;77.78
46942;BME280;32676;52.630;4.896;2023-02-13T04:00:14;103640.00;;;7.49;77.97
46942;BME280;32676;52.630;4.896;2023-02-13T04:02:50;103634.69;;;7.46;78.00
46942;BME280;32676;52.630;4.896;2023-02-13T04:05:22;103594.91;;;7.24;78.07
46942;BME280;32676;52.630;4.896;2023-02-13T04:07:50;103629.41;;;7.44;78.11
46942;BME280;32676;52.630;4.896;2023-02-13T04:10:18;103620.59;;;7.41;78.29
46942;BME280;32676;52.630;4.896;2023-02-13T04:12:51;103608.28;;;7.37;78.31
46942;BME280;32676;52.630;4.896;2023-02-13T04:15:27;103583.50;;;7.22;78.44
46942;BME280;32676;52.630;4.896;2023-02-13T04:18:01;103591.66;;;7.35;78.54
46942;BME280;32676;52.630;4.896;2023-02-13T04:20:31;103593.44;;;7.36;78.82
46942;BME280;32676;52.630;4.896;2023-02-13T04:23:03;103578.53;;;7.32;78.87
46942;BME280;32676;52.630;4.896;2023-02-13T04:25:33;103588.16;;;7.34;78.80
46942;BME280;32676;52.630;4.896;2023-02-13T04:28:01;103560.72;;;7.18;78.61
46942;BME280;32676;52.630;4.896;2023-02-13T04:30:27;103573.28;;;7.32;78.59
46942;BME280;32676;52.630;4.896;2023-02-13T04:32:54;103569.66;;;7.26;78.57
46942;BME280;32676;52.630;4.896;2023-02-13T04:35:21;103564.53;;;7.29;78.40
46942;BME280;32676;52.630;4.896;2023-02-13T04:37:49;103565.34;;;7.28;78.33
46942;BME280;32676;52.630;4.896;2023-02-13T04:40:15;103560.91;;;7.24;78.32
46942;BME280;32676;52.630;4.896;2023-02-13T04:42:46;103585.53;;;7.34;78.10
46942;BME280;32676;52.630;4.896;2023-02-13T04:45:13;103594.31;;;7.36;77.97
46942;BME280;32676;52.630;4.896;2023-02-13T04:47:40;103611.91;;;7.42;77.79
46942;BME280;32676;52.630;4.896;2023-02-13T04:50:07;103609.19;;;7.37;77.57
46942;BME280;32676;52.630;4.896;2023-02-13T04:52:34;103604.72;;;7.35;77.25
46942;BME280;32676;52.630;4.896;2023-02-13T04:55:01;103598.53;;;7.31;77.45
46942;BME280;32676;52.630;4.896;2023-02-13T04:57:29;103599.44;;;7.32;77.27
46942;BME280;32676;52.630;4.896;2023-02-13T04:59:58;103608.34;;;7.40;77.27
46942;BME280;32676;52.630;4.896;2023-02-13T05:02:25;103613.53;;;7.38;77.16
46942;BME280;32676;52.630;4.896;2023-02-13T05:04:52;103601.28;;;7.36;77.23
46942;BME280;32676;52.630;4.896;2023-02-13T05:07:19;103610.06;;;7.38;77.20
46942;BME280;32676;52.630;4.896;2023-02-13T05:09:47;103616.22;;;7.40;77.17
46942;BME280;32676;52.630;4.896;2023-02-13T05:12:13;103607.47;;;7.39;76.99
46942;BME280;32676;52.630;4.896;2023-02-13T05:14:40;103603.94;;;7.37;77.02
46942;BME280;32676;52.630;4.896;2023-02-13T05:17:08;103585.25;;;7.23;77.34
46942;BME280;32676;52.630;4.896;2023-02-13T05:19:34;103603.94;;;7.37;77.22
46942;BME280;32676;52.630;4.896;2023-02-13T05:22:01;103588.94;;;7.30;77.37
46942;BME280;32676;52.630;4.896;2023-02-13T05:24:45;103592.44;;;7.30;77.43
46942;BME280;32676;52.630;4.896;2023-02-13T05:27:13;103611.84;;;7.39;77.39
46942;BME280;32676;52.630;4.896;2023-02-13T05:29:40;103604.81;;;7.38;77.39
46942;BME280;32676;52.630;4.896;2023-02-13T05:32:09;103604.81;;;7.38;77.64
46942;BME280;32676;52.630;4.896;2023-02-13T05:34:35;103587.19;;;7.30;77.74
46942;BME280;32676;52.630;4.896;2023-02-13T05:37:02;103590.81;;;7.36;77.72
46942;BME280;32676;52.630;4.896;2023-02-13T05:39:29;103602.22;;;7.38;77.58
46942;BME280;32676;52.630;4.896;2023-02-13T05:41:56;103570.25;;;7.16;77.86
46942;BME280;32676;52.630;4.896;2023-02-13T05:44:22;103584.53;;;7.29;77.79
46942;BME280;32676;52.630;4.896;2023-02-13T05:46:49;103600.41;;;7.37;77.68
46942;BME280;32676;52.630;4.896;2023-02-13T05:49:21;103605.66;;;7.37;77.80
46942;BME280;32676;52.630;4.896;2023-02-13T05:51:48;103596.88;;;7.33;77.69
46942;BME280;32676;52.630;4.896;2023-02-13T05:54:16;103592.53;;;7.34;77.84
46942;BME280;32676;52.630;4.896;2023-02-13T05:56:45;103601.28;;;7.36;77.98
46942;BME280;32676;52.630;4.896;2023-02-13T05:59:13;103599.50;;;7.35;77.87
46942;BME280;32676;52.630;4.896;2023-02-13T06:01:40;103604.81;;;7.38;77.91
46942;BME280;32676;52.630;4.896;2023-02-13T06:04:06;103578.09;;;7.16;77.87
46942;BME280;32676;52.630;4.896;2023-02-13T06:06:34;103610.06;;;7.38;77.89
46942;BME280;32676;52.630;4.896;2023-02-13T06:09:01;103610.06;;;7.38;77.76
46942;BME280;32676;52.630;4.896;2023-02-13T06:11:28;103610.88;;;7.35;77.97
46942;BME280;32676;52.630;4.896;2023-02-13T06:13:54;103625.84;;;7.41;77.62
46942;BME280;32676;52.630;4.896;2023-02-13T06:16:21;103620.59;;;7.41;77.51
46942;BME280;32676;52.630;4.896;2023-02-13T06:18:48;103593.97;;;7.22;77.55
46942;BME280;32676;52.630;4.896;2023-02-13T06:21:14;103638.97;;;7.44;77.62
46942;BME280;32676;52.630;4.896;2023-02-13T06:23:42;103634.59;;;7.43;77.46
46942;BME280;32676;52.630;4.896;2023-02-13T06:26:09;103606.44;;;7.33;77.59
46942;BME280;32676;52.630;4.896;2023-02-13T06:28:35;103628.44;;;7.41;77.56
46942;BME280;32676;52.630;4.896;2023-02-13T06:31:02;103614.41;;;7.37;77.58
46942;BME280;32676;52.630;4.896;2023-02-13T06:33:29;103627.59;;;7.42;77.63
46942;BME280;32676;52.630;4.896;2023-02-13T06:35:55;103638.16;;;7.45;77.71
46942;BME280;32676;52.630;4.896;2023-02-13T06:38:22;103659.16;;;7.48;77.53
46942;BME280;32676;52.630;4.896;2023-02-13T06:40:50;103656.47;;;7.45;77.29
46942;BME280;32676;52.630;4.896;2023-02-13T06:43:16;103664.44;;;7.51;77.25
46942;BME280;32676;52.630;4.896;2023-02-13T06:45:43;103660.09;;;7.50;77.11
46942;BME280;32676;52.630;4.896;2023-02-13T06:48:11;103662.69;;;7.50;77.09
46942;BME280;32676;52.630;4.896;2023-02-13T06:50:38;103652.16;;;7.47;76.98
46942;BME280;32676;52.630;4.896;2023-02-13T06:53:04;103638.00;;;7.39;77.06
46942;BME280;32676;52.630;4.896;2023-02-13T06:55:30;103652.16;;;7.47;77.02
46942;BME280;32676;52.630;4.896;2023-02-13T06:57:58;103653.00;;;7.46;76.97
46942;BME280;32676;52.630;4.896;2023-02-13T07:00:25;103653.94;;;7.48;76.98
46942;BME280;32676;52.630;4.896;2023-02-13T07:02:51;103662.63;;;7.47;77.12
46942;BME280;32676;52.630;4.896;2023-02-13T07:05:18;103660.09;;;7.50;77.18
46942;BME280;32676;52.630;4.896;2023-02-13T07:07:45;103667.13;;;7.53;76.94
46942;BME280;32676;52.630;4.896;2023-02-13T07:10:12;103679.38;;;7.54;77.00
46942;BME280;32676;52.630;4.896;2023-02-13T07:12:39;103682.88;;;7.54;76.95
46942;BME280;32676;52.630;4.896;2023-02-13T07:15:08;103673.25;;;7.53;76.98
46942;BME280;32676;52.630;4.896;2023-02-13T07:17:35;103657.28;;;7.44;76.86
46942;BME280;32676;52.630;4.896;2023-02-13T07:20:02;103677.59;;;7.53;76.81
46942;BME280;32676;52.630;4.896;2023-02-13T07:22:30;103668.03;;;7.53;76.86
46942;BME280;32676;52.630;4.896;2023-02-13T07:24:57;103672.34;;;7.53;76.82
46942;BME280;32676;52.630;4.896;2023-02-13T07:27:24;103673.25;;;7.53;76.90
46942;BME280;32676;52.630;4.896;2023-02-13T07:29:53;103684.66;;;7.55;76.92
46942;BME280;32676;52.630;4.896;2023-02-13T07:32:21;103684.66;;;7.55;77.00
46942;BME280;32676;52.630;4.896;2023-02-13T07:34:48;103699.47;;;7.56;77.12
46942;BME280;32676;52.630;4.896;2023-02-13T07:37:14;103708.25;;;7.58;77.09
46942;BME280;32676;52.630;4.896;2023-02-13T07:39:41;103654.38;;;7.32;76.77
46942;BME280;32676;52.630;4.896;2023-02-13T07:42:07;103696.03;;;7.57;76.91
46942;BME280;32676;52.630;4.896;2023-02-13T07:44:33;103705.69;;;7.60;77.04
46942;BME280;32676;52.630;4.896;2023-02-13T07:47:00;103720.59;;;7.62;77.03
46942;BME280;32676;52.630;4.896;2023-02-13T07:49:28;103718.88;;;7.63;77.16
46942;BME280;32676;52.630;4.896;2023-02-13T07:51:55;103718.00;;;7.64;77.17
46942;BME280;32676;52.630;4.896;2023-02-13T07:54:22;103757.44;;;7.70;77.15
46942;BME280;32676;52.630;4.896;2023-02-13T07:56:49;103738.25;;;7.69;77.09
46942;BME280;32676;52.630;4.896;2023-02-13T07:59:15;103738.88;;;7.61;76.97
46942;BME280;32676;52.630;4.896;2023-02-13T08:01:42;103759.25;;;7.73;77.19
46942;BME280;32676;52.630;4.896;2023-02-13T08:04:08;103759.19;;;7.69;76.96
46942;BME280;32676;52.630;4.896;2023-02-13T08:06:38;103773.34;;;7.78;76.97
46942;BME280;32676;52.630;4.896;2023-02-13T08:09:05;103785.50;;;7.76;76.83
46942;BME280;32676;52.630;4.896;2023-02-13T08:11:51;103803.16;;;7.83;76.96
46942;BME280;32676;52.630;4.896;2023-02-13T08:14:22;103797.81;;;7.80;77.06
46942;BME280;32676;52.630;4.896;2023-02-13T08:16:50;103794.38;;;7.81;77.07
46942;BME280;32676;52.630;4.896;2023-02-13T08:19:17;103799.63;;;7.81;77.11
46942;BME280;32676;52.630;4.896;2023-02-13T08:21:45;103797.91;;;7.83;77.21
46942;BME280;32676;52.630;4.896;2023-02-13T08:24:12;103804.91;;;7.84;77.05
46942;BME280;32676;52.630;4.896;2023-02-13T08:26:38;103804.03;;;7.83;76.98
46942;BME280;32676;52.630;4.896;2023-02-13T08:29:06;103798.69;;;7.80;77.00
46942;BME280;32676;52.630;4.896;2023-02-13T08:31:33;103802.28;;;7.84;77.03
46942;BME280;32676;52.630;4.896;2023-02-13T08:33:59;103818.97;;;7.86;77.14
46942;BME280;32676;52.630;4.896;2023-02-13T08:36:26;103820.72;;;7.87;77.18
46942;BME280;32676;52.630;4.896;2023-02-13T08:38:54;103822.50;;;7.88;77.15
46942;BME280;32676;52.630;4.896;2023-02-13T08:41:20;103808.28;;;7.80;77.26
46942;BME280;32676;52.630;4.896;2023-02-13T08:43:47;103840.06;;;7.92;77.42
46942;BME280;32676;52.630;4.896;2023-02-13T08:46:14;103844.47;;;7.93;77.41
46942;BME280;32676;52.630;4.896;2023-02-13T08:48:41;103840.06;;;7.92;77.40
46942;BME280;32676;52.630;4.896;2023-02-13T08:51:09;103854.06;;;7.94;77.44
46942;BME280;32676;52.630;4.896;2023-02-13T08:53:37;103866.41;;;7.98;77.40
46942;BME280;32676;52.630;4.896;2023-02-13T08:56:05;103869.94;;;8.00;77.51
46942;BME280;32676;52.630;4.896;2023-02-13T08:58:32;103873.44;;;7.99;77.30
46942;BME280;32676;52.630;4.896;2023-02-13T09:00:58;103895.38;;;8.04;77.48
46942;BME280;32676;52.630;4.896;2023-02-13T09:03:25;103896.31;;;8.06;77.40
46942;BME280;32676;52.630;4.896;2023-02-13T09:05:52;103900.59;;;8.03;77.32
46942;BME280;32676;52.630;4.896;2023-02-13T09:08:18;103927.91;;;8.13;77.36
46942;BME280;32676;52.630;4.896;2023-02-13T09:10:44;103941.03;;;8.14;77.31
46942;BME280;32676;52.630;4.896;2023-02-13T09:13:12;103948.06;;;8.15;77.07
46942;BME280;32676;52.630;4.896;2023-02-13T09:15:40;103963.84;;;8.18;77.03
46942;BME280;32676;52.630;4.896;2023-02-13T09:18:07;103975.41;;;8.25;77.10
46942;BME280;32676;52.630;4.896;2023-02-13T09:20:34;103995.56;;;8.27;76.90
46942;BME280;32676;52.630;4.896;2023-02-13T09:23:00;104001.69;;;8.28;76.92
46942;BME280;32676;52.630;4.896;2023-02-13T09:25:27;104015.81;;;8.33;76.99
46942;BME280;32676;52.630;4.896;2023-02-13T09:27:53;104004.28;;;8.26;76.95
46942;BME280;32676;52.630;4.896;2023-02-13T09:30:21;104014.03;;;8.32;77.07
46942;BME280;32676;52.630;4.896;2023-02-13T09:32:49;104013.94;;;8.29;76.67
46942;BME280;32676;52.630;4.896;2023-02-13T09:35:16;104020.97;;;8.30;77.00
46942;BME280;32676;52.630;4.896;2023-02-13T09:37:42;104022.66;;;8.28;76.88
46942;BME280;32676;52.630;4.896;2023-02-13T09:40:16;104041.31;;;8.39;77.04
46942;BME280;32676;52.630;4.896;2023-02-13T09:42:44;104042.19;;;8.39;77.01
46942;BME280;32676;52.630;4.896;2023-02-13T09:45:12;104052.81;;;8.42;77.02
46942;BME280;32676;52.630;4.896;2023-02-13T09:47:42;104069.31;;;8.41;76.84
46942;BME280;32676;52.630;4.896;2023-02-13T09:50:12;104089.66;;;8.49;76.64
46942;BME280;32676;52.630;4.896;2023-02-13T09:52:42;104100.25;;;8.52;76.56
46942;BME280;32676;52.630;4.896;2023-02-13T09:55:14;104114.38;;;8.57;76.63
46942;BME280;32676;52.630;4.896;2023-02-13T09:57:46;104124.94;;;8.60;76.43
46942;BME280;32676;52.630;4.896;2023-02-13T10:00:19;104147.75;;;8.64;76.32
46942;BME280;32676;52.630;4.896;2023-02-13T10:03:11;104170.63;;;8.68;76.24
46942;BME280;32676;52.630;4.896;2023-02-13T10:05:46;104197.06;;;8.76;76.02
46942;BME280;32676;52.630;4.896;2023-02-13T10:08:29;104189.81;;;8.67;75.86
46942;BME280;32676;52.630;4.896;2023-02-13T10:11:04;104225.19;;;8.81;75.82
46942;BME280;32676;52.630;4.896;2023-02-13T10:13:49;104229.63;;;8.82;75.77
46942;BME280;32676;52.630;4.896;2023-02-13T10:16:24;104260.44;;;8.90;75.79
46942;BME280;32676;52.630;4.896;2023-02-13T10:18:57;104273.56;;;8.91;75.67
46942;BME280;32676;52.630;4.896;2023-02-13T10:21:29;104288.56;;;8.95;75.67
46942;BME280;32676;52.630;4.896;2023-02-13T10:24:01;104303.50;;;8.98;75.94
46942;BME280;32676;52.630;4.896;2023-02-13T10:26:31;104307.09;;;9.01;75.77
46942;BME280;32676;52.630;4.896;2023-02-13T10:29:13;104322.78;;;9.00;75.77
46942;BME280;32676;52.630;4.896;2023-02-13T10:32:04;104353.81;;;9.13;75.81
46942;BME280;32676;52.630;4.896;2023-02-13T10:34:37;104380.13;;;9.16;75.49
46942;BME280;32676;52.630;4.896;2023-02-13T10:37:12;104399.53;;;9.21;75.52
46942;BME280;32676;52.630;4.896;2023-02-13T10:39:41;104389.03;;;9.21;75.41
46942;BME280;32676;52.630;4.896;2023-02-13T10:42:16;104362.13;;;9.00;75.40
46942;BME280;32676;52.630;4.896;2023-02-13T10:44:53;104399.44;;;9.18;75.37
46942;BME280;32676;52.630;4.896;2023-02-13T10:47:43;104425.97;;;9.28;75.34
46942;BME280;32676;52.630;4.896;2023-02-13T10:50:21;104441.03;;;9.33;75.10
46942;BME280;32676;52.630;4.896;2023-02-13T10:53:01;104447.16;;;9.34;75.16
46942;BME280;32676;52.630;4.896;2023-02-13T10:55:49;104475.19;;;9.35;75.09
46942;BME280;32676;52.630;4.896;2023-02-13T10:58:21;104482.41;;;9.42;75.03
46942;BME280;32676;52.630;4.896;2023-02-13T11:00:54;104510.63;;;9.49;75.03
46942;BME280;32676;52.630;4.896;2023-02-13T11:03:23;104516.81;;;9.51;75.03
46942;BME280;32676;52.630;4.896;2023-02-13T11:05:52;104539.69;;;9.54;74.67
46942;BME280;32676;52.630;4.896;2023-02-13T11:08:22;104547.69;;;9.58;74.79
46942;BME280;32676;52.630;4.896;2023-02-13T11:10:49;104573.28;;;9.64;74.88
46942;BME280;32676;52.630;4.896;2023-02-13T11:13:19;104627.81;;;9.73;74.80
46942;BME280;32676;52.630;4.896;2023-02-13T11:15:57;104644.72;;;9.81;74.43
46942;BME280;32676;52.630;4.896;2023-02-13T11:18:26;104661.53;;;9.86;74.20
46942;BME280;32676;52.630;4.896;2023-02-13T11:21:05;104690.63;;;9.92;73.83
46942;BME280;32676;52.630;4.896;2023-02-13T11:23:41;104702.94;;;9.95;73.61
46942;BME280;32676;52.630;4.896;2023-02-13T11:26:11;104701.25;;;9.95;73.61
46942;BME280;32676;52.630;4.896;2023-02-13T11:28:47;104730.28;;;10.00;73.37
46942;BME280;32676;52.630;4.896;2023-02-13T11:31:23;104746.22;;;10.05;73.47
46942;BME280;32676;52.630;4.896;2023-02-13T11:33:50;104766.47;;;10.09;73.24
46942;BME280;32676;52.630;4.896;2023-02-13T11:36:23;104761.22;;;10.09;73.39
46942;BME280;32676;52.630;4.896;2023-02-13T11:38:57;104790.31;;;10.15;73.31
46942;BME280;32676;52.630;4.896;2023-02-13T11:41:24;104807.06;;;10.17;73.55
46942;BME280;32676;52.630;4.896;2023-02-13T11:43:53;104837.13;;;10.25;73.39
46942;BME280;32676;52.630;4.896;2023-02-13T11:46:27;104847.56;;;10.24;73.32
46942;BME280;32676;52.630;4.896;2023-02-13T11:49:01;104855.75;;;10.31;73.37
46942;BME280;32676;52.630;4.896;2023-02-13T11:51:38;104884.91;;;10.37;73.37
46942;BME280;32676;52.630;4.896;2023-02-13T11:54:18;104870.69;;;10.32;73.12
46942;BME280;32676;52.630;4.896;2023-02-13T11:56:49;104893.72;;;10.40;73.06
46942;BME280;32676;52.630;4.896;2023-02-13T11:59:15;104911.38;;;10.44;73.41
46942;BME280;32676;52.630;4.896;2023-02-13T12:01:42;104916.75;;;10.47;73.38
46942;BME280;32676;52.630;4.896;2023-02-13T12:04:14;104924.53;;;10.44;73.07
46942;BME280;32676;52.630;4.896;2023-02-13T12:06:58;104937.00;;;10.49;73.09
46942;BME280;32676;52.630;4.896;2023-02-13T12:09:26;104951.25;;;10.56;72.58
46942;BME280;32676;52.630;4.896;2023-02-13T12:11:55;104943.25;;;10.53;72.46
46942;BME280;32676;52.630;4.896;2023-02-13T12:14:25;104934.44;;;10.51;72.35
46942;BME280;32676;52.630;4.896;2023-02-13T12:16:55;104937.06;;;10.51;71.98
46942;BME280;32676;52.630;4.896;2023-02-13T12:19:27;104938.00;;;10.53;71.86
46942;BME280;32676;52.630;4.896;2023-02-13T12:22:08;104942.44;;;10.54;71.70
46942;BME280;32676;52.630;4.896;2023-02-13T12:24:52;104925.59;;;10.49;71.87
46942;BME280;32676;52.630;4.896;2023-02-13T12:27:25;104919.41;;;10.47;71.63
46942;BME280;32676;52.630;4.896;2023-02-13T12:33:07;104905.31;;;10.45;71.94
46942;BME280;32676;52.630;4.896;2023-02-13T12:35:45;104900.88;;;10.44;72.15
46942;BME280;32676;52.630;4.896;2023-02-13T12:38:27;104898.09;;;10.39;72.39
46942;BME280;32676;52.630;4.896;2023-02-13T12:41:12;104891.94;;;10.38;72.38
46942;BME280;32676;52.630;4.896;2023-02-13T12:44:01;104916.88;;;10.50;72.38
46942;BME280;32676;52.630;4.896;2023-02-13T12:46:37;104941.56;;;10.55;72.60
46942;BME280;32676;52.630;4.896;2023-02-13T12:49:17;104951.31;;;10.57;72.44
46942;BME280;32676;52.630;4.896;2023-02-13T12:51:50;104965.34;;;10.58;72.22
46942;BME280;32676;52.630;4.896;2023-02-13T12:54:40;104989.34;;;10.67;72.04
46942;BME280;32676;52.630;4.896;2023-02-13T12:57:31;105006.06;;;10.68;72.17
46942;BME280;32676;52.630;4.896;2023-02-13T13:00:13;105007.06;;;10.71;71.68
46942;BME280;32676;52.630;4.896;2023-02-13T13:02:54;105007.06;;;10.71;71.65
46942;BME280;32676;52.630;4.896;2023-02-13T13:05:31;104992.78;;;10.65;71.44
46942;BME280;32676;52.630;4.896;2023-02-13T13:08:15;105015.81;;;10.72;71.51
46942;BME280;32676;52.630;4.896;2023-02-13T13:10:59;105032.69;;;10.77;71.33
46942;BME280;32676;52.630;4.896;2023-02-13T13:13:40;105033.44;;;10.74;71.22
46942;BME280;32676;52.630;4.896;2023-02-13T13:16:19;105041.50;;;10.79;71.05
46942;BME280;32676;52.630;4.896;2023-02-13T13:18:57;105035.34;;;10.79;70.97
46942;BME280;32676;52.630;4.896;2023-02-13T13:21:37;105038.94;;;10.81;70.90
46942;BME280;32676;52.630;4.896;2023-02-13T13:24:17;105056.63;;;10.85;71.00
46942;BME280;32676;52.630;4.896;2023-02-13T13:26:50;105053.03;;;10.83;70.77